createdAt,value
2022-10-07T00:00:13.902Z,23.13
2022-10-07T00:03:00.400Z,23.77
2022-10-07T00:05:46.550Z,23.27
2022-10-07T00:08:32.928Z,21.70
2022-10-07T00:11:21.918Z,23.02
2022-10-07T00:14:08.148Z,22.10
2022-10-07T00:16:54.622Z,23.17
2022-10-07T00:19:40.648Z,21.60
2022-10-07T00:22:26.487Z,22.50
2022-10-07T00:25:12.938Z,22.40
2022-10-07T00:27:59.908Z,21.35
2022-10-07T00:30:45.938Z,22.13
2022-10-07T00:33:34.242Z,23.47
2022-10-07T00:36:25.560Z,21.48
2022-10-07T00:39:14.869Z,21.50
2022-10-07T00:42:01.031Z,22.30
2022-10-07T00:44:48.668Z,21.27
2022-10-07T00:47:35.661Z,21.27
2022-10-07T00:50:29.597Z,22.35
2022-10-07T00:53:16.240Z,21.77
2022-10-07T00:56:04.643Z,21.92
2022-10-07T00:58:52.219Z,21.88
2022-10-07T01:01:41.184Z,22.40
2022-10-07T01:04:28.778Z,22.77
2022-10-07T01:07:18.292Z,21.60
2022-10-07T01:10:05.296Z,21.35
2022-10-07T01:13:14.662Z,21.92
2022-10-07T01:16:06.369Z,20.88
2022-10-07T01:19:32.084Z,21.00
2022-10-07T01:22:28.204Z,21.98
2022-10-07T01:25:16.710Z,21.23
2022-10-07T01:28:19.864Z,21.77
2022-10-07T01:31:11.745Z,21.67
2022-10-07T01:33:59.070Z,21.40
2022-10-07T01:36:51.043Z,22.08
2022-10-07T01:39:45.700Z,20.65
2022-10-07T01:42:33.058Z,21.75
2022-10-07T01:45:22.528Z,20.95
2022-10-07T01:48:09.290Z,21.00
2022-10-07T01:50:57.126Z,21.85
2022-10-07T01:53:58.669Z,22.02
2022-10-07T01:56:53.680Z,23.10
2022-10-07T01:59:49.401Z,23.65
2022-10-07T02:03:12.986Z,22.40
2022-10-07T02:06:38.392Z,23.02
2022-10-07T02:09:51.621Z,22.02
2022-10-07T02:12:53.333Z,23.40
2022-10-07T02:15:47.756Z,21.77
2022-10-07T02:18:35.858Z,21.90
2022-10-07T02:21:30.250Z,22.20
2022-10-07T02:24:19.615Z,21.65
2022-10-07T02:27:12.678Z,22.13
2022-10-07T02:30:06.758Z,22.67
2022-10-07T02:32:55.700Z,21.90
2022-10-07T02:35:49.041Z,20.92
2022-10-07T02:38:35.896Z,22.63
2022-10-07T02:41:53.118Z,21.73
2022-10-07T02:44:51.356Z,21.87
2022-10-07T02:47:47.852Z,20.08
2022-10-07T02:50:42.379Z,21.52
2022-10-07T02:53:32.368Z,21.10
2022-10-07T02:56:22.709Z,20.23
2022-10-07T02:59:11.669Z,20.70
2022-10-07T03:02:02.726Z,20.97
2022-10-07T03:04:49.175Z,20.40
2022-10-07T03:07:36.132Z,19.55
2022-10-07T03:10:24.223Z,19.73
2022-10-07T03:13:10.111Z,19.13
2022-10-07T03:15:59.118Z,19.27
2022-10-07T03:18:46.564Z,18.83
2022-10-07T03:21:58.372Z,19.08
2022-10-07T03:24:44.353Z,18.75
2022-10-07T03:27:30.428Z,19.30
2022-10-07T03:30:22.283Z,18.77
2022-10-07T03:33:11.694Z,18.40
2022-10-07T03:35:57.324Z,18.63
2022-10-07T03:38:43.617Z,19.48
2022-10-07T03:41:30.373Z,18.75
2022-10-07T03:44:19.747Z,18.65
2022-10-07T03:47:10.643Z,18.70
2022-10-07T03:49:58.070Z,18.55
2022-10-07T03:52:45.657Z,17.63
2022-10-07T03:55:32.651Z,18.47
2022-10-07T03:58:18.961Z,18.37
2022-10-07T04:01:11.192Z,17.92
2022-10-07T04:04:02.422Z,17.60
2022-10-07T04:06:52.807Z,17.95
2022-10-07T04:09:39.365Z,18.23
2022-10-07T04:12:25.421Z,18.27
2022-10-07T04:15:15.053Z,17.70
2022-10-07T04:18:03.376Z,18.08
2022-10-07T04:20:49.685Z,18.17
2022-10-07T04:23:37.057Z,17.27
2022-10-07T04:26:23.152Z,17.40
2022-10-07T04:29:09.657Z,17.33
2022-10-07T04:31:58.933Z,17.42
2022-10-07T04:34:45.365Z,18.00
2022-10-07T04:37:31.253Z,16.48
2022-10-07T04:40:19.773Z,17.60
2022-10-07T04:43:23.524Z,16.38
2022-10-07T04:46:15.796Z,16.42
2022-10-07T04:49:07.322Z,16.90
2022-10-07T04:51:54.740Z,16.98
2022-10-07T04:54:43.197Z,16.55
2022-10-07T04:57:29.952Z,17.42
2022-10-07T05:00:16.082Z,16.50
2022-10-07T05:03:01.895Z,16.75
2022-10-07T05:05:51.154Z,16.55
2022-10-07T05:08:38.272Z,16.55
2022-10-07T05:11:26.009Z,16.17
2022-10-07T05:14:25.463Z,17.10
2022-10-07T05:17:13.032Z,15.75
2022-10-07T05:19:59.693Z,16.58
2022-10-07T05:22:46.148Z,16.38
2022-10-07T05:25:33.110Z,15.93
2022-10-07T05:28:20.029Z,17.27
2022-10-07T05:31:11.413Z,16.58
2022-10-07T05:33:59.231Z,16.65
2022-10-07T05:36:45.829Z,17.13
2022-10-07T05:39:32.096Z,16.23
2022-10-07T05:42:25.146Z,17.88
2022-10-07T05:45:14.774Z,16.27
2022-10-07T05:48:01.368Z,15.73
2022-10-07T05:50:47.937Z,16.33
2022-10-07T05:53:35.139Z,16.38
2022-10-07T05:56:24.083Z,15.45
2022-10-07T05:59:13.916Z,16.30
2022-10-07T06:02:02.162Z,16.27
2022-10-07T06:04:48.993Z,16.45
2022-10-07T06:07:36.413Z,17.17
2022-10-07T06:10:41.659Z,17.30
2022-10-07T06:13:27.970Z,15.97
2022-10-07T06:16:14.031Z,16.50
2022-10-07T06:19:00.944Z,17.10
2022-10-07T06:21:50.843Z,15.98
2022-10-07T06:24:38.121Z,17.15
2022-10-07T06:27:24.769Z,16.67
2022-10-07T06:30:13.336Z,16.55
2022-10-07T06:32:59.623Z,16.63
2022-10-07T06:35:47.188Z,16.55
2022-10-07T06:38:33.805Z,16.75
2022-10-07T06:41:21.297Z,16.67
2022-10-07T06:44:10.477Z,16.75
2022-10-07T06:46:56.228Z,15.85
2022-10-07T06:49:42.372Z,16.90
2022-10-07T06:52:28.678Z,16.35
2022-10-07T06:55:15.517Z,15.80
2022-10-07T06:58:02.033Z,16.02
2022-10-07T07:00:53.303Z,16.50
2022-10-07T07:03:41.670Z,16.85
2022-10-07T07:06:27.739Z,16.77
2022-10-07T07:09:14.246Z,16.42
2022-10-07T07:12:02.998Z,16.10
2022-10-07T07:14:53.195Z,16.20
2022-10-07T07:17:41.302Z,15.82
2022-10-07T07:20:35.100Z,16.88
2022-10-07T07:23:21.145Z,18.77
2022-10-07T07:26:07.137Z,15.82
2022-10-07T07:28:58.862Z,15.85
2022-10-07T07:31:51.076Z,16.13
2022-10-07T07:34:40.295Z,15.88
2022-10-07T07:37:30.248Z,15.48
2022-10-07T07:40:17.916Z,17.60
2022-10-07T07:43:06.071Z,16.85
2022-10-07T07:45:53.831Z,17.40
2022-10-07T07:48:40.563Z,17.15
2022-10-07T07:51:27.081Z,18.63
2022-10-07T07:54:14.389Z,17.55
2022-10-07T07:57:02.433Z,16.40
2022-10-07T07:59:50.374Z,17.75
2022-10-07T08:02:37.181Z,18.55
2022-10-07T08:05:24.160Z,19.58
2022-10-07T08:08:15.119Z,18.00
2022-10-07T08:11:10.353Z,18.05
2022-10-07T08:13:57.669Z,18.80
2022-10-07T08:16:45.010Z,19.63
2022-10-07T08:19:31.248Z,21.15
2022-10-07T08:22:18.162Z,20.27
2022-10-07T08:25:09.117Z,21.40
2022-10-07T08:27:55.313Z,21.33
2022-10-07T08:30:41.831Z,22.25
2022-10-07T08:33:27.653Z,23.67
2022-10-07T08:36:20.361Z,23.08
2022-10-07T08:39:06.858Z,23.27
2022-10-07T08:42:04.113Z,24.63
2022-10-07T08:44:51.685Z,22.83
2022-10-07T08:47:47.767Z,22.67
2022-10-07T08:50:46.919Z,22.10
2022-10-07T08:53:35.621Z,22.30
2022-10-07T08:56:24.577Z,23.13
2022-10-07T08:59:24.708Z,22.77
2022-10-07T09:02:44.272Z,22.75
2022-10-07T09:05:40.514Z,22.98
2022-10-07T09:08:36.533Z,22.77
2022-10-07T09:11:25.925Z,22.63
2022-10-07T09:14:33.747Z,21.90
2022-10-07T09:17:43.427Z,22.23
2022-10-07T09:20:36.011Z,21.88
2022-10-07T09:23:25.992Z,22.67
2022-10-07T09:26:14.930Z,22.15
2022-10-07T09:29:01.358Z,22.60
2022-10-07T09:31:49.432Z,21.77
2022-10-07T09:34:34.957Z,21.83
2022-10-07T09:37:24.284Z,21.45
2022-10-07T09:40:31.952Z,21.00
2022-10-07T09:43:19.980Z,20.95
2022-10-07T09:46:06.168Z,20.90
2022-10-07T09:49:04.497Z,20.37
2022-10-07T09:52:15.940Z,20.85
2022-10-07T09:55:32.616Z,20.42
2022-10-07T09:58:20.230Z,19.55
2022-10-07T10:01:11.202Z,21.48
2022-10-07T10:03:58.716Z,20.67
2022-10-07T10:06:52.704Z,19.48
2022-10-07T10:09:38.424Z,19.27
2022-10-07T10:12:26.366Z,20.98
2022-10-07T10:15:30.293Z,20.10
2022-10-07T10:18:31.021Z,20.55
2022-10-07T10:21:27.345Z,20.10
2022-10-07T10:24:16.946Z,19.77
2022-10-07T10:27:16.185Z,20.17
2022-10-07T10:30:09.301Z,19.05
2022-10-07T10:33:08.457Z,19.85
2022-10-07T10:36:06.773Z,19.52
2022-10-07T10:39:12.796Z,17.98
2022-10-07T10:42:01.270Z,17.50
2022-10-07T10:44:56.426Z,17.67
2022-10-07T10:47:57.398Z,19.02
2022-10-07T10:51:31.995Z,17.77
2022-10-07T10:54:38.773Z,17.63
2022-10-07T10:57:44.285Z,17.50
2022-10-07T11:00:52.271Z,19.52
2022-10-07T11:04:00.908Z,16.75
2022-10-07T11:06:53.250Z,16.90
2022-10-07T11:09:45.017Z,15.82
2022-10-07T11:12:38.288Z,18.55
2022-10-07T11:15:31.048Z,17.25
2022-10-07T11:18:35.765Z,16.65
2022-10-07T11:21:47.402Z,16.15
2022-10-07T11:24:37.068Z,15.90
2022-10-07T11:27:35.014Z,15.07
2022-10-07T11:30:23.798Z,14.77
2022-10-07T11:33:19.785Z,14.70
2022-10-07T11:36:25.025Z,13.80
2022-10-07T11:39:11.295Z,13.35
2022-10-07T11:42:31.777Z,13.60
2022-10-07T11:45:27.063Z,14.00
2022-10-07T11:48:21.788Z,12.50
2022-10-07T11:51:17.709Z,13.45
2022-10-07T11:54:06.761Z,17.35
2022-10-07T11:56:55.998Z,16.08
2022-10-07T11:59:46.222Z,13.35
2022-10-07T12:02:32.364Z,14.20
2022-10-07T12:05:48.880Z,11.88
2022-10-07T12:08:36.406Z,11.55
2022-10-07T12:11:37.180Z,10.88
2022-10-07T12:14:31.940Z,13.18
2022-10-07T12:17:22.555Z,12.18
2022-10-07T12:20:42.969Z,11.07
2022-10-07T12:23:31.386Z,9.45
2022-10-07T12:26:31.098Z,8.50
2022-10-07T12:29:31.777Z,9.27
2022-10-07T12:32:46.164Z,9.95
2022-10-07T12:35:35.620Z,10.35
2022-10-07T12:38:31.193Z,9.40
2022-10-07T12:41:25.336Z,9.52
2022-10-07T12:44:21.643Z,10.50
2022-10-07T12:47:13.909Z,9.73
2022-10-07T12:50:11.385Z,8.43
2022-10-07T12:53:00.959Z,7.70
2022-10-07T12:55:53.763Z,7.28
2022-10-07T12:59:11.770Z,7.15
2022-10-07T13:02:14.822Z,8.38
2022-10-07T13:05:37.634Z,7.50
2022-10-07T13:09:02.765Z,7.28
2022-10-07T13:12:10.250Z,7.38
2022-10-07T13:15:05.659Z,7.20
2022-10-07T13:18:00.438Z,8.43
2022-10-07T13:21:04.233Z,8.32
2022-10-07T13:23:54.445Z,6.93
2022-10-07T13:26:45.512Z,6.18
2022-10-07T13:29:33.392Z,6.13
2022-10-07T13:32:25.361Z,6.43
2022-10-07T13:35:30.374Z,7.17
2022-10-07T13:38:26.948Z,7.32
2022-10-07T13:41:15.765Z,6.97
2022-10-07T13:44:04.638Z,6.00
2022-10-07T13:46:56.158Z,6.07
2022-10-07T13:49:46.385Z,6.30
2022-10-07T13:52:41.577Z,6.93
2022-10-07T13:55:35.267Z,7.07
2022-10-07T13:58:21.275Z,5.70
2022-10-07T14:01:07.562Z,6.10
2022-10-07T14:04:15.715Z,6.70
2022-10-07T14:07:19.528Z,6.97
2022-10-07T14:10:10.098Z,6.22
2022-10-07T14:13:00.042Z,6.50
2022-10-07T14:15:50.961Z,5.57
2022-10-07T14:18:43.455Z,5.25
2022-10-07T14:21:30.586Z,4.80
2022-10-07T14:24:20.457Z,4.80
2022-10-07T14:27:40.374Z,5.88
2022-10-07T14:30:56.743Z,4.85
2022-10-07T14:34:07.670Z,5.65
2022-10-07T14:37:05.220Z,5.05
2022-10-07T14:39:53.222Z,5.55
2022-10-07T14:42:38.858Z,4.43
2022-10-07T14:45:24.485Z,5.05
2022-10-07T14:48:14.216Z,5.28
2022-10-07T14:51:00.387Z,5.47
2022-10-07T14:53:50.295Z,4.38
2022-10-07T14:56:38.913Z,5.07
2022-10-07T14:59:24.974Z,5.40
2022-10-07T15:02:12.798Z,5.57
2022-10-07T15:04:59.478Z,5.60
2022-10-07T15:07:45.272Z,5.03
2022-10-07T15:10:32.750Z,5.93
2022-10-07T15:13:18.897Z,5.57
2022-10-07T15:16:04.929Z,6.03
2022-10-07T15:18:53.059Z,5.83
2022-10-07T15:21:39.071Z,5.90
2022-10-07T15:24:25.154Z,5.82
2022-10-07T15:27:11.094Z,6.35
2022-10-07T15:29:56.977Z,7.03
2022-10-07T15:32:43.152Z,6.35
2022-10-07T15:35:31.241Z,6.37
2022-10-07T15:38:17.306Z,6.57
2022-10-07T15:41:03.352Z,6.78
2022-10-07T15:43:49.659Z,6.20
2022-10-07T15:46:35.689Z,6.07
2022-10-07T15:49:22.292Z,5.70
2022-10-07T15:52:09.066Z,6.10
2022-10-07T15:54:55.467Z,5.30
2022-10-07T15:57:41.240Z,5.63
2022-10-07T16:00:27.711Z,6.25
2022-10-07T16:03:15.245Z,5.72
2022-10-07T16:06:03.022Z,6.13
2022-10-07T16:08:55.290Z,6.18
2022-10-07T16:11:42.113Z,6.47
2022-10-07T16:14:27.902Z,11.30
2022-10-07T16:17:14.451Z,5.90
2022-10-07T16:20:05.554Z,6.18
2022-10-07T16:22:55.191Z,5.60
2022-10-07T16:25:41.748Z,6.25
2022-10-07T16:28:46.490Z,5.75
2022-10-07T16:31:34.474Z,5.80
2022-10-07T16:34:20.809Z,5.50
2022-10-07T16:37:06.445Z,6.00
2022-10-07T16:39:52.125Z,5.88
2022-10-07T16:42:37.711Z,5.68
2022-10-07T16:45:24.233Z,5.30
2022-10-07T16:48:10.777Z,5.50
2022-10-07T16:50:58.241Z,5.57
2022-10-07T16:53:47.375Z,5.70
2022-10-07T16:56:35.223Z,5.75
2022-10-07T16:59:24.356Z,5.93
2022-10-07T17:02:11.169Z,5.53
2022-10-07T17:04:57.364Z,5.75
2022-10-07T17:07:43.532Z,5.50
2022-10-07T17:10:29.756Z,5.15
2022-10-07T17:13:18.563Z,5.68
2022-10-07T17:16:06.270Z,5.23
2022-10-07T17:18:53.475Z,5.88
2022-10-07T17:21:42.000Z,5.80
2022-10-07T17:24:28.189Z,5.63
2022-10-07T17:27:14.867Z,6.18
2022-10-07T17:30:01.290Z,6.13
2022-10-07T17:32:50.356Z,5.97
2022-10-07T17:35:36.486Z,6.93
2022-10-07T17:38:22.449Z,7.18
2022-10-07T17:41:24.513Z,8.07
2022-10-07T17:44:12.452Z,8.90
2022-10-07T17:47:03.627Z,8.47
2022-10-07T17:49:49.958Z,9.00
2022-10-07T17:52:36.108Z,8.97
2022-10-07T17:55:22.557Z,8.63
2022-10-07T17:58:08.751Z,7.95
2022-10-07T18:00:55.768Z,8.00
2022-10-07T18:03:43.400Z,8.10
2022-10-07T18:06:34.354Z,8.68
2022-10-07T18:09:22.298Z,13.98
2022-10-07T18:12:26.328Z,8.40
2022-10-07T18:15:19.535Z,8.63
2022-10-07T18:18:06.183Z,8.43
2022-10-07T18:20:53.124Z,8.43
2022-10-07T18:23:40.111Z,8.48
2022-10-07T18:26:26.275Z,9.13
2022-10-07T18:29:12.692Z,8.15
2022-10-07T18:31:59.235Z,8.60
2022-10-07T18:34:45.229Z,8.57
2022-10-07T18:37:31.391Z,8.60
2022-10-07T18:40:17.418Z,8.18
2022-10-07T18:43:04.189Z,8.85
2022-10-07T18:46:08.249Z,9.10
2022-10-07T18:48:54.570Z,8.80
2022-10-07T18:51:41.260Z,9.27
2022-10-07T18:54:27.585Z,9.38
2022-10-07T18:57:13.393Z,9.30
2022-10-07T18:59:59.710Z,8.90
2022-10-07T19:02:46.152Z,9.13
2022-10-07T19:05:39.432Z,9.30
2022-10-07T19:08:25.604Z,9.40
2022-10-07T19:11:15.690Z,10.32
2022-10-07T19:14:02.111Z,9.30
2022-10-07T19:16:49.331Z,9.43
2022-10-07T19:19:35.671Z,9.80
2022-10-07T19:22:22.645Z,8.82
2022-10-07T19:25:28.357Z,9.23
2022-10-07T19:28:14.509Z,9.80
2022-10-07T19:31:18.512Z,9.50
2022-10-07T19:34:08.185Z,9.65
2022-10-07T19:36:55.115Z,9.68
2022-10-07T19:39:41.166Z,9.30
2022-10-07T19:42:28.606Z,10.55
2022-10-07T19:45:15.498Z,10.20
2022-10-07T19:48:04.308Z,10.80
2022-10-07T19:50:57.168Z,10.52
2022-10-07T19:53:47.109Z,11.15
2022-10-07T19:56:35.611Z,11.25
2022-10-07T19:59:22.253Z,10.02
2022-10-07T20:02:12.182Z,10.75
2022-10-07T20:04:58.005Z,9.70
2022-10-07T20:07:43.750Z,10.25
2022-10-07T20:10:29.945Z,9.70
2022-10-07T20:13:17.554Z,9.20
2022-10-07T20:16:07.641Z,9.20
2022-10-07T20:19:06.748Z,9.02
2022-10-07T20:21:52.406Z,9.20
2022-10-07T20:24:39.011Z,8.80
2022-10-07T20:27:24.975Z,9.40
2022-10-07T20:30:17.895Z,9.02
2022-10-07T20:33:04.491Z,9.15
2022-10-07T20:35:52.716Z,9.32
2022-10-07T20:38:57.384Z,10.50
2022-10-07T20:42:02.226Z,9.90
2022-10-07T20:44:49.280Z,10.20
2022-10-07T20:47:35.429Z,10.52
2022-10-07T20:50:21.106Z,9.77
2022-10-07T20:53:07.086Z,9.40
2022-10-07T20:55:53.264Z,11.20
2022-10-07T20:58:38.823Z,11.82
2022-10-07T21:01:25.139Z,13.20
2022-10-07T21:04:13.770Z,14.13
2022-10-07T21:06:59.903Z,14.40
2022-10-07T21:09:46.371Z,13.93
2022-10-07T21:12:32.636Z,14.30
2022-10-07T21:15:20.139Z,14.32
2022-10-07T21:18:06.647Z,14.77
2022-10-07T21:20:56.905Z,15.15
2022-10-07T21:23:43.256Z,15.07
2022-10-07T21:26:29.603Z,14.43
2022-10-07T21:29:15.460Z,14.00
2022-10-07T21:32:02.077Z,14.73
2022-10-07T21:34:48.295Z,14.65
2022-10-07T21:37:33.879Z,14.98
2022-10-07T21:40:20.328Z,15.48
2022-10-07T21:43:06.410Z,15.25
2022-10-07T21:45:52.018Z,15.07
2022-10-07T21:48:38.536Z,14.88
2022-10-07T21:51:27.047Z,15.18
2022-10-07T21:54:14.233Z,14.23
2022-10-07T21:57:00.304Z,14.32
2022-10-07T21:59:46.886Z,13.82
2022-10-07T22:02:33.742Z,14.00
2022-10-07T22:05:19.599Z,12.93
2022-10-07T22:08:31.208Z,12.70
2022-10-07T22:11:19.401Z,12.20
2022-10-07T22:14:09.966Z,11.82
2022-10-07T22:16:57.929Z,11.50
2022-10-07T22:19:44.253Z,9.77
2022-10-07T22:22:29.840Z,9.77
2022-10-07T22:25:15.893Z,10.10
2022-10-07T22:28:01.771Z,9.63
2022-10-07T22:30:47.930Z,9.68
2022-10-07T22:33:35.391Z,9.43
2022-10-07T22:36:22.190Z,9.68
2022-10-07T22:39:08.416Z,9.00
2022-10-07T22:41:54.398Z,9.32
2022-10-07T22:44:40.262Z,10.52
2022-10-07T22:47:26.584Z,9.43
2022-10-07T22:50:12.678Z,9.70
2022-10-07T22:52:59.096Z,9.90
2022-10-07T22:55:45.399Z,9.63
2022-10-07T22:58:31.864Z,9.50
2022-10-07T23:01:18.366Z,9.23
2022-10-07T23:04:05.343Z,9.35
2022-10-07T23:06:51.341Z,9.43
2022-10-07T23:09:37.862Z,9.45
2022-10-07T23:12:23.613Z,8.70
2022-10-07T23:15:09.827Z,9.60
2022-10-07T23:17:55.691Z,8.65
2022-10-07T23:20:41.125Z,8.60
2022-10-07T23:23:28.886Z,9.23
2022-10-07T23:26:23.363Z,8.20
2022-10-07T23:29:11.725Z,9.53
2022-10-07T23:31:57.288Z,9.00
2022-10-07T23:34:43.449Z,9.35
2022-10-07T23:37:29.269Z,8.50
2022-10-07T23:40:15.835Z,9.52
2022-10-07T23:43:01.809Z,8.77
2022-10-07T23:45:49.695Z,8.48
2022-10-07T23:48:36.250Z,8.85
2022-10-07T23:51:24.436Z,8.47
2022-10-07T23:54:10.520Z,8.75
2022-10-07T23:56:56.268Z,8.23
2022-10-07T23:59:42.206Z,9.00
